Time;durP1;ratioP1;P1;durP2;ratioP2;P2;SDS_P1;SDS_P2;PMS_P1;PMS_P2;Temp;Humidity;BMP_temperature;BMP_pressure;BME280_temperature;BME280_humidity;BME280_pressure;Samples;Min_cycle;Max_cycle;Signal;HPM_P1;HPM_P2
2022/03/18 00:00:16;;;;;;;17.37;8.47;;;4.30;99.90;;;;;;5052535;28;20476;-71
2022/03/18 00:02:43;;;;;;;10.80;5.53;;;4.20;99.90;;;;;;5049388;28;20479;-71
2022/03/18 00:05:11;;;;;;;18.60;5.50;;;4.30;99.90;;;;;;5052892;28;20507;-71
2022/03/18 00:07:40;;;;;;;15.70;5.50;;;4.30;99.90;;;;;;5052584;28;20537;-71
2022/03/18 00:10:08;;;;;;;9.90;4.90;;;4.20;99.90;;;;;;5052979;28;20568;-71
2022/03/18 00:12:35;;;;;;;19.83;6.73;;;4.20;99.90;;;;;;5052638;28;20478;-71
2022/03/18 00:15:01;;;;;;;11.97;5.70;;;4.20;99.90;;;;;;5051942;28;20518;-71
2022/03/18 00:17:28;;;;;;;15.53;4.93;;;4.10;99.90;;;;;;5052395;28;20476;-71
2022/03/18 00:19:55;;;;;;;20.80;6.53;;;4.10;99.90;;;;;;5051084;28;20522;-71
2022/03/18 00:22:21;;;;;;;15.77;5.77;;;4.10;99.90;;;;;;5052915;28;20956;-71
2022/03/18 00:24:49;;;;;;;19.40;5.90;;;4.10;99.90;;;;;;5052046;28;20479;-71
2022/03/18 00:27:16;;;;;;;16.60;6.27;;;4.10;99.90;;;;;;5052704;28;20464;-71
2022/03/18 00:29:43;;;;;;;17.30;6.53;;;4.10;99.90;;;;;;5052275;28;20944;-71
2022/03/18 00:32:10;;;;;;;12.53;5.40;;;4.10;99.90;;;;;;5051454;28;20952;-71
2022/03/18 00:34:37;;;;;;;12.37;6.00;;;4.10;99.90;;;;;;5047343;28;20952;-71
2022/03/18 00:37:04;;;;;;;11.87;5.63;;;4.10;99.90;;;;;;5052341;28;20537;-71
2022/03/18 00:39:30;;;;;;;14.37;6.30;;;4.00;99.90;;;;;;5052436;28;20490;-71
2022/03/18 00:41:58;;;;;;;11.93;5.67;;;4.00;99.90;;;;;;5051747;28;20453;-71
2022/03/18 00:44:25;;;;;;;11.30;5.90;;;4.00;99.90;;;;;;5052280;28;20853;-71
2022/03/18 00:46:52;;;;;;;12.40;6.30;;;4.00;99.90;;;;;;5051918;28;21890;-71
2022/03/18 00:52:05;;;;;;;21.87;6.40;;;4.00;99.90;;;;;;5050692;28;20436;-71
2022/03/18 00:54:35;;;;;;;14.20;5.63;;;4.00;99.90;;;;;;5051925;28;20453;-71
2022/03/18 00:57:04;;;;;;;9.00;6.13;;;4.00;99.90;;;;;;5049561;28;20477;-71
2022/03/18 00:59:32;;;;;;;18.13;5.80;;;4.00;99.90;;;;;;5052516;28;20453;-71
2022/03/18 01:01:59;;;;;;;13.63;5.63;;;3.90;99.90;;;;;;5051596;28;20448;-71
2022/03/18 01:04:28;;;;;;;23.53;5.67;;;3.90;99.90;;;;;;5051691;28;20476;-71
2022/03/18 01:06:55;;;;;;;17.77;6.33;;;3.90;99.90;;;;;;5051241;28;20499;-71
2022/03/18 01:09:24;;;;;;;19.03;6.47;;;3.90;99.90;;;;;;5051858;28;20511;-71
2022/03/18 01:11:52;;;;;;;19.40;6.70;;;3.90;99.90;;;;;;5051338;28;20460;-71
2022/03/18 01:14:21;;;;;;;16.93;6.17;;;3.90;99.90;;;;;;5051614;28;20455;-71
2022/03/18 01:16:48;;;;;;;17.03;6.10;;;3.90;99.90;;;;;;5051647;28;21046;-71
2022/03/18 01:19:14;;;;;;;14.10;5.77;;;3.90;99.90;;;;;;5051070;28;20494;-71
2022/03/18 01:21:42;;;;;;;15.60;6.80;;;3.90;99.90;;;;;;5051537;28;21027;-71
2022/03/18 01:24:10;;;;;;;16.10;6.20;;;3.80;99.90;;;;;;5050167;28;20477;-71
2022/03/18 01:26:36;;;;;;;15.07;6.27;;;3.80;99.90;;;;;;5048244;28;20483;-71
2022/03/18 01:29:04;;;;;;;14.90;5.90;;;3.80;99.90;;;;;;5049982;28;20448;-71
2022/03/18 01:31:32;;;;;;;19.40;6.30;;;3.80;99.90;;;;;;5051102;28;20627;-71
2022/03/18 01:33:59;;;;;;;18.23;6.73;;;3.80;99.90;;;;;;5050472;28;20507;-71
2022/03/18 01:36:26;;;;;;;18.27;6.13;;;3.80;99.90;;;;;;5050878;28;21212;-71
2022/03/18 01:38:53;;;;;;;9.10;5.70;;;3.70;99.90;;;;;;5050858;28;20456;-71
2022/03/18 01:41:19;;;;;;;13.80;5.90;;;3.70;99.90;;;;;;5051604;28;20478;-71
2022/03/18 01:43:47;;;;;;;10.70;6.20;;;3.70;99.90;;;;;;5050868;28;20480;-71
2022/03/18 01:46:15;;;;;;;21.93;6.37;;;3.60;99.90;;;;;;5050184;28;20509;-71
2022/03/18 01:48:44;;;;;;;13.80;6.07;;;3.60;99.90;;;;;;5051072;28;20456;-71
2022/03/18 01:51:11;;;;;;;23.10;7.67;;;3.60;99.90;;;;;;5051294;28;20453;-71
2022/03/18 01:53:39;;;;;;;18.47;6.40;;;3.60;99.90;;;;;;5050847;28;20448;-71
2022/03/18 01:56:07;;;;;;;24.07;7.70;;;3.60;99.90;;;;;;5050885;28;20453;-71
2022/03/18 01:58:34;;;;;;;12.03;6.37;;;3.60;99.90;;;;;;5051051;28;20441;-71
2022/03/18 02:01:01;;;;;;;14.40;6.63;;;3.60;99.90;;;;;;5049494;28;20560;-71
2022/03/18 02:03:27;;;;;;;11.80;7.17;;;3.50;99.90;;;;;;5050826;28;20888;-71
2022/03/18 02:05:57;;;;;;;17.67;6.53;;;3.50;99.90;;;;;;5049676;28;20452;-71
2022/03/18 02:08:24;;;;;;;16.40;7.43;;;3.50;99.90;;;;;;5049502;28;20480;-71
2022/03/18 02:10:51;;;;;;;17.93;6.43;;;3.50;99.90;;;;;;5050649;28;20456;-71
2022/03/18 02:13:18;;;;;;;13.27;6.00;;;3.40;99.90;;;;;;5043749;28;20464;-71
2022/03/18 02:15:45;;;;;;;17.63;6.83;;;3.40;99.90;;;;;;5050200;28;20448;-71
2022/03/18 02:18:12;;;;;;;20.10;6.20;;;3.40;99.90;;;;;;5046192;28;20480;-71
2022/03/18 02:20:39;;;;;;;12.50;6.53;;;3.40;99.90;;;;;;5050698;28;20466;-71
2022/03/18 02:23:07;;;;;;;17.57;6.97;;;3.40;99.90;;;;;;5049852;28;20448;-71
2022/03/18 02:25:34;;;;;;;23.10;6.93;;;3.30;99.90;;;;;;5044735;28;20795;-71
2022/03/18 02:28:02;;;;;;;11.20;6.40;;;3.30;99.90;;;;;;5049752;28;20480;-71
2022/03/18 02:30:33;;;;;;;16.27;7.20;;;3.30;99.90;;;;;;5050061;28;20484;-71
2022/03/18 02:33:00;;;;;;;12.37;6.13;;;3.30;99.90;;;;;;5049879;28;20560;-71
2022/03/18 02:35:28;;;;;;;19.40;6.83;;;3.30;99.90;;;;;;5050106;28;20459;-71
2022/03/18 02:37:55;;;;;;;12.87;7.20;;;3.30;99.90;;;;;;5049795;28;20480;-71
2022/03/18 02:40:24;;;;;;;17.80;6.57;;;3.30;99.90;;;;;;5049519;28;20487;-71
2022/03/18 02:42:51;;;;;;;24.67;6.70;;;3.20;99.90;;;;;;5049855;28;20487;-71
2022/03/18 02:45:17;;;;;;;17.60;6.20;;;3.20;99.90;;;;;;5049580;28;20503;-71
2022/03/18 02:47:44;;;;;;;17.63;6.40;;;3.20;99.90;;;;;;5049918;28;20549;-71
2022/03/18 02:50:11;;;;;;;27.23;6.80;;;3.20;99.90;;;;;;5048561;28;20502;-71
2022/03/18 02:52:38;;;;;;;16.43;7.47;;;3.20;99.90;;;;;;5047538;28;20464;-71
2022/03/18 02:55:05;;;;;;;22.47;7.60;;;3.10;99.90;;;;;;5041204;28;20948;-71
2022/03/18 02:57:33;;;;;;;20.03;7.50;;;3.10;99.90;;;;;;5049861;28;20900;-71
2022/03/18 03:00:00;;;;;;;13.33;6.40;;;3.10;99.90;;;;;;5049412;28;20502;-71
2022/03/18 03:02:27;;;;;;;14.40;6.40;;;3.10;99.90;;;;;;5044134;28;20478;-71
2022/03/18 03:10:22;;;;;;;12.90;6.57;;;3.00;99.90;;;;;;5045661;28;20450;-71
2022/03/18 03:12:51;;;;;;;13.63;7.30;;;3.00;99.90;;;;;;5047122;28;20463;-71
2022/03/18 03:15:17;;;;;;;17.43;7.07;;;3.00;99.90;;;;;;5048917;28;20460;-71
2022/03/18 03:17:44;;;;;;;13.90;6.70;;;3.00;99.90;;;;;;5049186;28;20526;-71
2022/03/18 03:20:12;;;;;;;18.70;7.43;;;3.00;99.90;;;;;;5049126;28;20452;-71
2022/03/18 03:22:38;;;;;;;19.10;7.43;;;3.00;99.90;;;;;;5049237;28;20457;-71
2022/03/18 03:25:06;;;;;;;21.90;7.77;;;3.00;99.90;;;;;;5048539;28;21003;-71
2022/03/18 03:27:33;;;;;;;12.30;6.83;;;3.00;99.90;;;;;;5049356;28;20549;-71
2022/03/18 03:30:02;;;;;;;14.70;7.17;;;3.00;99.90;;;;;;5048683;28;21121;-71
2022/03/18 03:32:28;;;;;;;18.43;8.97;;;3.00;99.90;;;;;;5050114;28;20526;-71
2022/03/18 03:34:57;;;;;;;14.43;7.47;;;3.00;99.90;;;;;;5049640;28;20440;-71
2022/03/18 03:37:24;;;;;;;24.67;7.90;;;3.00;99.90;;;;;;5049032;28;20534;-71
2022/03/18 03:39:51;;;;;;;24.83;8.13;;;3.00;99.90;;;;;;5048962;28;20869;-71
2022/03/18 03:42:18;;;;;;;13.77;7.70;;;2.90;99.90;;;;;;5049410;28;20449;-71
2022/03/18 03:44:45;;;;;;;19.00;8.17;;;2.90;99.90;;;;;;5049079;28;20530;-71
2022/03/18 03:47:14;;;;;;;21.67;7.83;;;2.90;99.90;;;;;;5049234;28;20468;-71
2022/03/18 03:49:40;;;;;;;22.60;10.20;;;2.90;99.90;;;;;;5049178;28;20803;-71
2022/03/18 03:52:08;;;;;;;18.50;8.60;;;2.90;99.90;;;;;;5049013;28;22050;-71
2022/03/18 03:54:35;;;;;;;22.37;9.43;;;2.90;99.90;;;;;;5044027;28;20988;-71
2022/03/18 03:57:01;;;;;;;19.17;8.93;;;2.80;99.90;;;;;;5048910;28;20473;-71
2022/03/18 03:59:28;;;;;;;16.00;8.00;;;2.80;99.90;;;;;;5048984;28;20445;-71
2022/03/18 04:01:55;;;;;;;15.73;8.70;;;2.80;99.90;;;;;;5049477;28;20452;-71
2022/03/18 04:04:23;;;;;;;24.93;9.90;;;2.70;99.90;;;;;;5049043;28;20537;-71
2022/03/18 04:06:50;;;;;;;23.20;9.43;;;2.70;99.90;;;;;;5049200;28;20887;-71
2022/03/18 04:09:16;;;;;;;32.40;9.30;;;2.70;99.90;;;;;;5038829;28;20923;-71
2022/03/18 04:11:43;;;;;;;20.83;9.17;;;2.70;99.90;;;;;;5049423;28;20963;-71
2022/03/18 04:14:10;;;;;;;31.77;9.23;;;2.70;99.90;;;;;;5048171;28;20963;-71
2022/03/18 04:16:36;;;;;;;22.17;10.13;;;2.70;99.90;;;;;;5049194;28;20494;-71
2022/03/18 04:19:04;;;;;;;22.63;8.73;;;2.70;99.90;;;;;;5046825;28;20456;-71
2022/03/18 04:21:32;;;;;;;19.27;9.50;;;2.60;99.90;;;;;;5049133;28;20982;-71
2022/03/18 04:23:58;;;;;;;20.07;9.13;;;2.60;99.90;;;;;;5048699;28;20476;-71
2022/03/18 04:26:25;;;;;;;31.07;9.73;;;2.60;99.90;;;;;;5048476;28;20472;-71
2022/03/18 04:28:52;;;;;;;18.00;8.70;;;2.60;99.90;;;;;;5050751;28;20456;-71
2022/03/18 04:31:19;;;;;;;17.63;9.47;;;2.60;99.90;;;;;;5052700;28;20460;-71
2022/03/18 04:33:45;;;;;;;16.23;8.60;;;2.50;99.90;;;;;;5052081;28;20463;-71
2022/03/18 04:36:12;;;;;;;23.87;9.60;;;2.60;99.90;;;;;;5051977;28;20458;-71
2022/03/18 04:38:40;;;;;;;24.03;10.03;;;2.50;99.90;;;;;;5052457;28;20449;-71
2022/03/18 04:41:07;;;;;;;26.47;10.00;;;2.50;99.90;;;;;;5051980;28;20464;-71
2022/03/18 04:43:33;;;;;;;28.57;10.23;;;2.60;99.90;;;;;;5052180;28;20445;-71
2022/03/18 04:46:00;;;;;;;16.83;9.83;;;2.50;99.90;;;;;;5051925;28;20525;-71
2022/03/18 04:48:27;;;;;;;25.20;9.20;;;2.60;99.90;;;;;;5051957;28;21018;-71
2022/03/18 04:50:54;;;;;;;16.57;8.97;;;2.50;99.90;;;;;;5051883;28;20502;-71
2022/03/18 04:53:20;;;;;;;23.50;9.80;;;2.60;99.90;;;;;;5048610;28;20462;-71
2022/03/18 04:55:48;;;;;;;18.17;9.03;;;2.50;99.90;;;;;;5048840;28;20490;-71
2022/03/18 04:58:15;;;;;;;19.07;10.33;;;2.50;99.90;;;;;;5051352;28;20525;-71
2022/03/18 05:00:41;;;;;;;31.20;12.23;;;2.50;99.90;;;;;;5051628;28;20865;-71
2022/03/18 05:03:10;;;;;;;21.07;10.93;;;2.50;99.90;;;;;;5051476;28;20932;-71
2022/03/18 05:05:37;;;;;;;18.27;10.30;;;2.50;99.90;;;;;;5052056;28;20511;-71
2022/03/18 05:08:05;;;;;;;23.50;9.13;;;2.40;99.90;;;;;;5051543;28;21037;-71
2022/03/18 05:10:33;;;;;;;17.77;9.53;;;2.40;99.90;;;;;;5051271;28;20502;-71
2022/03/18 05:13:01;;;;;;;23.60;9.83;;;2.40;99.90;;;;;;5051177;28;20883;-71
2022/03/18 05:15:28;;;;;;;24.40;10.23;;;2.40;99.90;;;;;;5051571;28;20817;-71
2022/03/18 05:17:55;;;;;;;18.97;8.80;;;2.40;99.90;;;;;;5049373;28;20526;-71
2022/03/18 05:20:22;;;;;;;26.00;10.43;;;2.40;99.90;;;;;;5045308;28;20559;-71
2022/03/18 05:22:51;;;;;;;34.20;10.67;;;2.40;99.90;;;;;;5051511;28;20464;-71
2022/03/18 05:25:17;;;;;;;23.13;10.30;;;2.40;99.90;;;;;;5043430;28;20525;-71
2022/03/18 05:27:45;;;;;;;20.17;10.50;;;2.40;99.90;;;;;;5051423;28;20531;-71
2022/03/18 05:30:15;;;;;;;25.83;10.10;;;2.30;99.90;;;;;;5044888;28;20452;-71
2022/03/18 05:32:42;;;;;;;24.83;11.73;;;2.30;99.90;;;;;;5051474;28;20507;-71
2022/03/18 05:35:10;;;;;;;26.10;10.50;;;2.30;99.90;;;;;;5044761;28;20449;-71
2022/03/18 05:37:37;;;;;;;27.03;10.80;;;2.30;99.90;;;;;;5051187;28;20486;-71
2022/03/18 05:40:04;;;;;;;29.60;10.40;;;2.20;99.90;;;;;;5050232;28;20452;-71
2022/03/18 05:42:30;;;;;;;21.53;10.47;;;2.20;99.90;;;;;;5051652;28;20514;-71
2022/03/18 05:45:00;;;;;;;41.17;11.13;;;2.20;99.90;;;;;;5044167;28;21070;-71
2022/03/18 05:47:28;;;;;;;23.60;11.10;;;2.30;99.90;;;;;;5050919;28;20472;-71
2022/03/18 05:49:56;;;;;;;27.73;11.40;;;2.30;99.90;;;;;;5049441;28;20452;-71
2022/03/18 05:52:24;;;;;;;29.70;10.57;;;2.30;99.90;;;;;;5050712;28;20910;-71
2022/03/18 05:54:50;;;;;;;28.73;11.37;;;2.30;99.90;;;;;;5047887;28;20494;-71
2022/03/18 05:57:16;;;;;;;24.77;10.60;;;2.30;99.90;;;;;;5049678;28;20494;-71
2022/03/18 05:59:43;;;;;;;32.60;10.43;;;2.30;99.90;;;;;;5049334;28;20448;-71
2022/03/18 06:02:10;;;;;;;24.93;10.30;;;2.30;99.90;;;;;;5049588;28;20570;-71
2022/03/18 06:04:38;;;;;;;26.70;10.73;;;2.40;99.90;;;;;;5050675;28;20487;-71
2022/03/18 06:07:06;;;;;;;25.20;10.70;;;2.40;99.90;;;;;;5049878;28;20499;-71
2022/03/18 06:12:17;;;;;;;18.93;10.57;;;2.40;99.90;;;;;;5050007;28;20547;-71
2022/03/18 06:14:43;;;;;;;26.33;10.43;;;2.40;99.90;;;;;;5050359;28;20462;-71
2022/03/18 06:17:10;;;;;;;21.27;10.40;;;2.40;99.90;;;;;;5048838;28;20542;-71
2022/03/18 06:19:38;;;;;;;23.63;10.57;;;2.40;99.90;;;;;;5044982;28;20457;-72
2022/03/18 06:22:07;;;;;;;20.90;9.93;;;2.50;99.90;;;;;;5050056;28;20448;-72
2022/03/18 06:24:34;;;;;;;21.07;10.00;;;2.50;99.90;;;;;;5043286;28;20492;-72
2022/03/18 06:27:02;;;;;;;22.87;10.67;;;2.60;99.90;;;;;;5047688;28;20472;-72
2022/03/18 06:29:30;;;;;;;22.47;10.50;;;2.60;99.90;;;;;;5049729;28;20452;-72
2022/03/18 06:31:58;;;;;;;26.00;11.30;;;3.10;99.90;;;;;;5049712;28;20521;-72
2022/03/18 06:34:25;;;;;;;21.30;9.10;;;2.70;99.90;;;;;;5043401;28;20851;-72
2022/03/18 06:36:55;;;;;;;21.53;9.60;;;2.70;99.90;;;;;;5050158;28;20476;-72
2022/03/18 06:39:24;;;;;;;25.37;11.03;;;2.80;99.90;;;;;;5043745;28;20567;-72
2022/03/18 06:41:52;;;;;;;23.20;9.47;;;2.80;99.90;;;;;;5050254;28;20453;-72
2022/03/18 06:44:19;;;;;;;33.07;10.17;;;2.80;99.90;;;;;;5042637;28;20448;-72
2022/03/18 06:46:46;;;;;;;20.17;8.70;;;2.90;99.90;;;;;;5050046;28;20507;-72
2022/03/18 06:49:14;;;;;;;24.50;9.70;;;2.90;99.90;;;;;;5048404;28;20456;-72
2022/03/18 06:51:41;;;;;;;18.60;8.80;;;3.00;99.90;;;;;;5049590;28;20449;-72
2022/03/18 06:54:09;;;;;;;19.43;8.90;;;3.00;99.90;;;;;;5049188;28;20475;-71
2022/03/18 06:56:38;;;;;;;22.77;9.30;;;3.00;99.90;;;;;;5043558;28;20989;-72
2022/03/18 06:59:05;;;;;;;18.80;9.90;;;3.10;99.90;;;;;;5043047;28;20485;-72
2022/03/18 07:01:32;;;;;;;28.77;9.43;;;3.10;99.90;;;;;;5049466;28;20444;-71
2022/03/18 07:03:58;;;;;;;20.73;8.30;;;3.20;99.90;;;;;;5049704;28;20470;-71
2022/03/18 07:06:25;;;;;;;22.33;10.17;;;3.20;99.90;;;;;;5044876;28;20487;-71
2022/03/18 07:08:52;;;;;;;23.90;10.20;;;3.30;99.90;;;;;;5043404;28;20449;-71
2022/03/18 07:11:20;;;;;;;23.70;9.80;;;3.30;99.90;;;;;;5048591;28;20511;-71
2022/03/18 07:13:46;;;;;;;20.20;8.60;;;3.40;99.90;;;;;;5049378;28;20457;-71
2022/03/18 07:18:58;;;;;;;18.67;8.63;;;3.60;99.90;;;;;;5049791;28;20590;-71
2022/03/18 07:21:24;;;;;;;20.60;9.17;;;3.80;99.90;;;;;;5048880;28;20473;-70
2022/03/18 07:23:51;;;;;;;17.27;8.63;;;3.90;99.90;;;;;;5048824;28;20456;-71
2022/03/18 07:26:19;;;;;;;26.80;8.13;;;4.10;99.90;;;;;;5047339;28;20489;-70
2022/03/18 07:28:46;;;;;;;13.83;6.60;;;4.40;99.90;;;;;;5049213;28;20460;-70
2022/03/18 07:31:12;;;;;;;12.70;7.30;;;4.60;99.90;;;;;;5047220;28;20440;-70
2022/03/18 07:33:39;;;;;;;19.27;7.10;;;4.80;99.90;;;;;;5047191;28;20502;-71
2022/03/18 07:36:06;;;;;;;18.33;7.90;;;4.90;99.90;;;;;;5049232;28;20449;-70
2022/03/18 07:38:33;;;;;;;16.83;7.20;;;4.90;99.90;;;;;;5042814;28;20518;-70
2022/03/18 07:41:00;;;;;;;21.50;8.20;;;4.90;99.90;;;;;;5049369;28;20861;-70
2022/03/18 07:43:28;;;;;;;24.30;7.23;;;4.90;99.90;;;;;;5042644;28;20448;-70
2022/03/18 07:45:55;;;;;;;19.50;7.73;;;5.00;99.90;;;;;;5049235;28;20542;-70
2022/03/18 07:48:26;;;;;;;17.93;7.13;;;4.90;99.90;;;;;;5047109;28;21046;-70
2022/03/18 07:50:53;;;;;;;16.30;7.10;;;4.90;99.90;;;;;;5049412;28;20450;-71
2022/03/18 07:53:19;;;;;;;19.60;7.37;;;4.90;99.90;;;;;;5046903;28;20460;-71
2022/03/18 07:55:46;;;;;;;22.20;8.07;;;4.90;99.90;;;;;;5045212;28;20452;-70
2022/03/18 07:58:13;;;;;;;21.73;8.20;;;5.00;99.90;;;;;;5048198;28;20476;-71
2022/03/18 08:00:42;;;;;;;16.63;7.80;;;5.20;99.90;;;;;;5045784;28;20457;-71
2022/03/18 08:03:09;;;;;;;20.30;8.83;;;5.40;99.90;;;;;;5042117;28;20460;-71
2022/03/18 08:05:36;;;;;;;14.50;7.03;;;5.70;99.90;;;;;;5046821;28;20991;-70
2022/03/18 08:08:03;;;;;;;16.47;6.33;;;6.00;99.90;;;;;;5051162;28;20480;-70
2022/03/18 08:10:29;;;;;;;17.33;7.87;;;6.40;99.90;;;;;;5044467;28;20861;-70
2022/03/18 08:12:56;;;;;;;22.67;8.17;;;6.60;99.90;;;;;;5047947;28;20452;-70
2022/03/18 08:15:27;;;;;;;24.50;7.27;;;6.80;99.90;;;;;;5051086;28;20991;-71
2022/03/18 08:17:56;;;;;;;18.20;7.60;;;7.20;99.90;;;;;;5052677;28;20522;-71
2022/03/18 08:20:22;;;;;;;21.23;7.07;;;7.40;99.90;;;;;;5050210;28;20472;-70
2022/03/18 08:22:51;;;;;;;15.00;7.23;;;7.70;99.90;;;;;;5052145;28;20456;-71
2022/03/18 08:25:18;;;;;;;16.40;7.40;;;7.90;99.90;;;;;;5046080;28;20476;-70
2022/03/18 08:27:47;;;;;;;21.03;7.90;;;8.10;99.90;;;;;;5050127;28;20504;-70
2022/03/18 08:30:14;;;;;;;24.90;7.37;;;8.30;99.90;;;;;;5050463;28;20863;-70
2022/03/18 08:32:41;;;;;;;25.87;6.97;;;8.50;99.90;;;;;;5045477;28;20453;-71
2022/03/18 08:35:10;;;;;;;19.20;8.10;;;8.70;99.90;;;;;;5050901;28;20862;-70
2022/03/18 08:40:22;;;;;;;14.47;8.40;;;9.40;99.90;;;;;;5049366;28;20459;-70
2022/03/18 08:42:49;;;;;;;17.70;9.53;;;9.70;99.90;;;;;;5048932;28;20452;-70
2022/03/18 08:45:16;;;;;;;16.00;8.90;;;9.50;99.90;;;;;;5048831;28;20484;-70
2022/03/18 08:47:43;;;;;;;27.57;9.20;;;9.60;99.90;;;;;;5051102;28;20469;-70
2022/03/18 08:50:12;;;;;;;17.87;9.10;;;10.00;99.90;;;;;;5050327;28;20453;-70
2022/03/18 08:52:39;;;;;;;15.90;8.03;;;10.40;99.90;;;;;;5049044;28;20453;-71
2022/03/18 08:55:08;;;;;;;20.17;9.40;;;10.50;99.90;;;;;;5050461;28;20510;-70
2022/03/18 08:57:37;;;;;;;19.90;7.80;;;10.70;99.90;;;;;;5043772;28;20464;-70
2022/03/18 09:00:07;;;;;;;20.47;9.10;;;10.80;99.90;;;;;;5049332;28;20457;-70
2022/03/18 09:02:34;;;;;;;17.00;8.20;;;11.00;99.90;;;;;;5050488;28;20789;-70
2022/03/18 09:05:01;;;;;;;13.90;8.00;;;11.40;99.90;;;;;;5049993;28;20456;-70
2022/03/18 09:07:30;;;;;;;13.53;6.90;;;11.50;99.90;;;;;;5047336;28;20488;-70
2022/03/18 09:09:56;;;;;;;13.00;7.80;;;11.70;99.90;;;;;;5046118;28;20547;-70
2022/03/18 09:12:23;;;;;;;13.17;7.60;;;11.90;99.90;;;;;;5048476;28;20468;-70
2022/03/18 09:14:50;;;;;;;20.87;8.17;;;11.80;99.90;;;;;;5046686;28;20878;-70
2022/03/18 09:17:16;;;;;;;14.30;7.70;;;11.70;99.90;;;;;;5049648;28;20511;-70
2022/03/18 09:19:43;;;;;;;13.50;7.67;;;11.90;99.90;;;;;;5048037;28;20964;-70
2022/03/18 09:22:10;;;;;;;16.17;8.50;;;12.00;99.90;;;;;;5048681;28;20449;-70
2022/03/18 09:24:38;;;;;;;16.73;8.50;;;12.10;99.90;;;;;;5047874;28;20549;-70
2022/03/18 09:27:06;;;;;;;18.57;8.67;;;12.00;99.90;;;;;;5048835;28;20547;-70
2022/03/18 09:29:32;;;;;;;23.10;8.00;;;11.80;99.90;;;;;;5046715;28;21057;-70
2022/03/18 09:31:59;;;;;;;21.53;8.40;;;11.80;99.90;;;;;;5045845;28;20453;-70
2022/03/18 09:34:26;;;;;;;14.60;8.47;;;11.80;99.90;;;;;;5046337;28;20457;-70
2022/03/18 09:36:54;;;;;;;20.90;8.17;;;12.10;99.90;;;;;;5044737;28;20499;-70
2022/03/18 09:39:21;;;;;;;18.73;8.17;;;12.20;99.90;;;;;;5048411;28;20664;-70
2022/03/18 09:41:50;;;;;;;14.20;7.33;;;12.40;99.90;;;;;;5049900;28;20452;-71
2022/03/18 09:44:17;;;;;;;11.83;6.90;;;12.70;99.90;;;;;;5040386;28;20510;-71
2022/03/18 09:46:47;;;;;;;21.73;8.20;;;12.80;99.90;;;;;;5053606;28;20550;-71
2022/03/18 09:49:15;;;;;;;18.30;8.03;;;12.90;99.90;;;;;;5048196;28;20456;-71
2022/03/18 09:51:43;;;;;;;19.43;8.60;;;13.30;99.90;;;;;;5047397;28;20464;-71
2022/03/18 09:54:10;;;;;;;18.23;8.57;;;13.20;99.90;;;;;;5049494;28;20499;-71
2022/03/18 09:56:40;;;;;;;20.63;8.70;;;12.90;99.90;;;;;;5043533;28;20990;-71
2022/03/18 09:59:08;;;;;;;18.97;7.60;;;13.00;99.90;;;;;;5047126;28;20461;-70
2022/03/18 10:01:35;;;;;;;16.77;8.53;;;13.10;99.90;;;;;;5040628;28;20506;-71
2022/03/18 10:04:04;;;;;;;15.80;8.30;;;13.10;99.90;;;;;;5048104;28;20962;-71
2022/03/18 10:06:31;;;;;;;14.02;7.35;;;13.30;99.90;;;;;;5048362;28;20622;-71
2022/03/18 10:08:59;;;;;;;17.47;7.70;;;13.40;99.90;;;;;;5049683;28;20547;-71
2022/03/18 10:11:30;;;;;;;11.70;7.10;;;13.40;99.90;;;;;;5049550;28;21027;-71
2022/03/18 10:14:00;;;;;;;14.90;7.23;;;13.60;99.90;;;;;;5049803;28;20530;-71
2022/03/18 10:16:37;;;;;;;18.20;7.53;;;13.60;99.90;;;;;;5048579;28;20555;-71
2022/03/18 10:19:07;;;;;;;10.50;7.00;;;13.50;99.90;;;;;;5048286;28;20470;-71
2022/03/18 10:21:35;;;;;;;12.63;7.03;;;13.10;99.90;;;;;;5048513;28;20479;-71
2022/03/18 10:24:06;;;;;;;18.37;7.47;;;13.20;99.90;;;;;;5048652;28;20879;-71
2022/03/18 10:26:35;;;;;;;11.90;7.53;;;13.30;99.90;;;;;;5044064;28;20484;-70
2022/03/18 10:29:03;;;;;;;11.50;7.73;;;13.40;99.90;;;;;;5046600;28;20948;-71
2022/03/18 10:31:30;;;;;;;13.20;7.37;;;13.60;99.90;;;;;;5044510;28;20460;-71
2022/03/18 10:39:31;;;;;;;15.57;7.37;;;14.40;99.90;;;;;;5049092;28;20479;-71
2022/03/18 10:42:00;;;;;;;11.93;6.70;;;14.50;99.90;;;;;;5049029;28;20514;-71
2022/03/18 10:44:27;;;;;;;18.60;7.33;;;14.20;99.90;;;;;;5041778;28;20922;-70
2022/03/18 10:46:56;;;;;;;20.70;9.00;;;14.40;99.90;;;;;;5048095;28;20488;-70
2022/03/18 10:49:25;;;;;;;24.33;8.10;;;14.40;99.90;;;;;;5042401;28;20454;-70
2022/03/18 10:51:52;;;;;;;13.90;7.63;;;14.30;99.90;;;;;;5041996;28;20499;-70
2022/03/18 10:54:24;;;;;;;9.00;5.77;;;13.90;99.90;;;;;;5038976;28;20536;-70
2022/03/18 10:56:59;;;;;;;10.23;5.73;;;14.00;99.90;;;;;;5048844;28;20503;-70
2022/03/18 10:59:27;;;;;;;11.00;6.00;;;14.10;99.90;;;;;;5048946;28;20444;-70
2022/03/18 11:01:56;;;;;;;12.83;6.00;;;14.20;99.90;;;;;;5049029;28;20444;-70
2022/03/18 11:04:25;;;;;;;14.80;5.37;;;14.50;99.90;;;;;;5037931;28;20556;-69
2022/03/18 11:12:28;;;;;;;10.10;5.43;;;14.70;99.90;;;;;;5041610;28;20456;-69
2022/03/18 11:14:56;;;;;;;9.20;5.10;;;14.70;99.90;;;;;;5039255;28;20457;-70
2022/03/18 11:17:23;;;;;;;7.40;4.30;;;14.80;99.90;;;;;;5040796;28;20984;-70
2022/03/18 11:19:52;;;;;;;9.50;4.60;;;14.90;99.90;;;;;;5044312;28;20464;-70
2022/03/18 11:22:20;;;;;;;9.10;4.20;;;14.90;99.90;;;;;;5048090;28;20479;-70
2022/03/18 11:24:48;;;;;;;9.27;4.33;;;14.70;99.90;;;;;;5047748;28;20471;-71
2022/03/18 11:27:16;;;;;;;6.67;4.30;;;14.60;99.90;;;;;;5045344;28;20515;-71
2022/03/18 11:29:43;;;;;;;9.30;3.87;;;14.80;99.90;;;;;;5046777;28;20796;-71
2022/03/18 11:32:20;;;;;;;7.47;4.27;;;15.10;99.90;;;;;;5042616;28;20454;-71
2022/03/18 11:34:50;;;;;;;7.10;4.10;;;15.20;99.90;;;;;;5048303;28;20427;-71
2022/03/18 11:37:19;;;;;;;7.63;3.90;;;15.30;99.90;;;;;;5043096;28;20439;-71
2022/03/18 11:39:47;;;;;;;6.93;4.10;;;15.30;99.90;;;;;;5045236;28;20455;-71
2022/03/18 11:42:19;;;;;;;6.40;3.80;;;15.40;99.10;;;;;;5047500;28;20423;-72
2022/03/18 11:44:52;;;;;;;11.80;3.93;;;15.10;99.00;;;;;;5050373;28;21029;-73
2022/03/18 11:47:44;;;;;;;7.10;3.28;;;15.40;99.80;;;;;;5041634;28;20437;-71
2022/03/18 11:50:35;;;;;;;6.60;2.83;;;15.70;99.00;;;;;;5050466;28;20206;-71
2022/03/18 11:53:03;;;;;;;3.10;2.73;;;15.70;97.60;;;;;;5045637;28;20486;-71
2022/03/18 11:55:30;;;;;;;4.37;2.87;;;15.70;95.30;;;;;;5051578;28;20452;-71
2022/03/18 11:57:56;;;;;;;5.30;2.80;;;15.60;95.80;;;;;;5045749;28;20711;-71
2022/03/18 12:00:43;;;;;;;4.03;2.90;;;15.60;95.60;;;;;;5040288;28;20423;-70
2022/03/18 12:03:20;;;;;;;4.40;3.10;;;15.60;93.80;;;;;;5050985;28;20527;-71
2022/03/18 12:05:54;;;;;;;5.27;3.40;;;16.00;93.70;;;;;;5052464;28;20440;-71
2022/03/18 12:09:09;;;;;;;3.37;2.60;;;16.30;94.30;;;;;;5052139;28;20439;-71
2022/03/18 12:11:37;;;;;;;5.90;2.93;;;16.40;92.80;;;;;;5049625;28;20441;-71
2022/03/18 12:14:06;;;;;;;13.47;2.90;;;16.80;91.20;;;;;;5052454;28;20916;-70
2022/03/18 12:16:32;;;;;;;3.97;2.80;;;17.00;91.60;;;;;;5051202;28;20446;-70
2022/03/18 12:19:01;;;;;;;5.57;3.03;;;16.30;91.50;;;;;;5051761;28;20980;-71
2022/03/18 12:21:36;;;;;;;5.93;2.73;;;16.20;92.70;;;;;;5052129;28;20435;-71
2022/03/18 12:24:06;;;;;;;4.67;3.70;;;16.40;89.00;;;;;;5052057;28;20448;-70
2022/03/18 12:26:32;;;;;;;4.07;2.93;;;16.30;87.10;;;;;;5051304;28;20474;-71
2022/03/18 12:28:59;;;;;;;5.70;3.20;;;16.40;86.60;;;;;;5047522;28;20518;-71
2022/03/18 12:31:26;;;;;;;7.40;3.90;;;16.70;89.40;;;;;;5042952;28;20966;-70
2022/03/18 12:33:57;;;;;;;9.30;4.50;;;17.00;92.40;;;;;;5044241;28;20510;-71
2022/03/18 12:36:26;;;;;;;10.57;5.17;;;17.20;93.80;;;;;;5043821;28;20416;-71
2022/03/18 12:39:13;;;;;;;9.20;5.10;;;17.00;93.90;;;;;;5047554;28;20506;-71
2022/03/18 12:41:41;;;;;;;6.67;4.53;;;17.10;94.10;;;;;;5050540;28;20558;-69
2022/03/18 12:44:08;;;;;;;9.43;5.23;;;17.10;92.70;;;;;;5048371;28;20502;-70
2022/03/18 12:46:36;;;;;;;9.50;5.80;;;17.10;91.60;;;;;;5051236;28;20581;-70
2022/03/18 12:49:04;;;;;;;13.93;6.20;;;17.30;92.90;;;;;;5050906;28;20510;-71
2022/03/18 12:51:31;;;;;;;11.80;6.40;;;17.60;93.40;;;;;;5051628;28;20508;-71
2022/03/18 12:53:59;;;;;;;11.27;5.57;;;17.60;93.00;;;;;;5051306;28;20423;-71
2022/03/18 12:56:31;;;;;;;12.63;5.10;;;17.70;92.60;;;;;;5039069;28;20473;-71
2022/03/18 12:58:58;;;;;;;8.17;4.90;;;17.60;93.20;;;;;;5047502;28;20459;-70
2022/03/18 13:01:25;;;;;;;8.60;5.10;;;17.80;94.40;;;;;;5050838;28;20502;-71
2022/03/18 13:03:54;;;;;;;7.73;4.17;;;18.10;93.30;;;;;;5051077;28;20481;-71
2022/03/18 13:06:24;;;;;;;6.10;3.90;;;18.00;92.10;;;;;;5051396;28;20423;-71
2022/03/18 13:08:54;;;;;;;4.83;3.43;;;17.60;92.50;;;;;;5051158;28;20502;-70
2022/03/18 13:11:21;;;;;;;6.93;4.10;;;17.50;89.90;;;;;;5051020;28;20453;-71
2022/03/18 13:13:51;;;;;;;7.70;4.77;;;17.40;90.10;;;;;;5043828;28;20517;-71